KDTN/DTN METAR and TAF weather

Enter ICAO airport designator
Station Type Date Time Source
KDTN METAR 2022/01/27 21:53 UTC NOAA

KDTN 272153Z 35008KT 10SM OVC070 09/M07 A3026 RMK AO2 SLP246 T00941072


Station Type Date Time Source
KDTN Decoded METAR 2022/01/27 21:53 UTC NOAA

SHREVEPORT DOWNTOWN AIRPORT, LA, United States (KDTN) 32-32N 093-45W 53M
Jan 27, 2022 - 04:53 PM EST / 2022.01.27 2153 UTC
Wind: from the N (350 degrees) at 9 MPH (8 KT):0
Visibility: 10 mile(s):0
Sky conditions: overcast
Temperature: 48.9 F (9.4 C)
Dew Point: 19.0 F (-7.2 C)
Relative Humidity: 30%
Pressure (altimeter): 30.26 in. Hg (1024 hPa)
ob: KDTN 272153Z 35008KT 10SM OVC070 09/M07 A3026 RMK AO2 SLP246 T00941072
cycle: 22

Station Type Date Time Source
KDTN TAF UTC NOAA

Error!

Example: see airport list